sensor_id;sensor_type;location;lat;lon;timestamp;P1;durP1;ratioP1;P2;durP2;ratioP2
23782;SDS011;12071;50.850;4.446;2023-08-07T00:00:46;6.90;;;2.20;;
23782;SDS011;12071;50.850;4.446;2023-08-07T00:03:12;20.80;;;3.08;;
23782;SDS011;12071;50.850;4.446;2023-08-07T00:08:16;7.90;;;2.25;;
23782;SDS011;12071;50.850;4.446;2023-08-07T00:10:42;8.10;;;2.58;;
23782;SDS011;12071;50.850;4.446;2023-08-07T00:13:08;12.25;;;2.13;;
23782;SDS011;12071;50.850;4.446;2023-08-07T00:15:36;9.15;;;2.63;;
23782;SDS011;12071;50.850;4.446;2023-08-07T00:18:03;5.20;;;2.70;;
23782;SDS011;12071;50.850;4.446;2023-08-07T00:20:28;7.35;;;2.30;;
23782;SDS011;12071;50.850;4.446;2023-08-07T00:22:54;6.15;;;2.10;;
23782;SDS011;12071;50.850;4.446;2023-08-07T00:25:20;8.82;;;2.25;;
23782;SDS011;12071;50.850;4.446;2023-08-07T00:27:45;7.32;;;2.22;;
23782;SDS011;12071;50.850;4.446;2023-08-07T00:30:11;12.23;;;2.58;;
23782;SDS011;12071;50.850;4.446;2023-08-07T00:32:37;9.13;;;2.03;;
23782;SDS011;12071;50.850;4.446;2023-08-07T00:35:03;8.30;;;2.25;;
23782;SDS011;12071;50.850;4.446;2023-08-07T00:37:30;5.53;;;2.08;;
23782;SDS011;12071;50.850;4.446;2023-08-07T00:39:55;8.52;;;2.65;;
23782;SDS011;12071;50.850;4.446;2023-08-07T00:42:21;7.35;;;2.20;;
23782;SDS011;12071;50.850;4.446;2023-08-07T00:44:47;5.38;;;2.10;;
23782;SDS011;12071;50.850;4.446;2023-08-07T00:47:13;8.80;;;2.10;;
23782;SDS011;12071;50.850;4.446;2023-08-07T00:49:38;5.10;;;2.17;;
23782;SDS011;12071;50.850;4.446;2023-08-07T00:52:04;7.45;;;2.08;;
23782;SDS011;12071;50.850;4.446;2023-08-07T00:54:31;9.00;;;2.28;;
23782;SDS011;12071;50.850;4.446;2023-08-07T00:57:06;6.38;;;2.20;;
23782;SDS011;12071;50.850;4.446;2023-08-07T00:59:37;7.00;;;2.15;;
23782;SDS011;12071;50.850;4.446;2023-08-07T01:02:04;8.70;;;2.47;;
23782;SDS011;12071;50.850;4.446;2023-08-07T01:04:31;8.55;;;2.78;;
23782;SDS011;12071;50.850;4.446;2023-08-07T01:06:56;10.68;;;2.70;;
23782;SDS011;12071;50.850;4.446;2023-08-07T01:09:22;7.70;;;2.22;;
23782;SDS011;12071;50.850;4.446;2023-08-07T01:11:49;5.35;;;2.47;;
23782;SDS011;12071;50.850;4.446;2023-08-07T01:17:09;6.35;;;2.42;;
23782;SDS011;12071;50.850;4.446;2023-08-07T01:19:39;8.23;;;2.42;;
23782;SDS011;12071;50.850;4.446;2023-08-07T01:22:07;7.45;;;2.20;;
23782;SDS011;12071;50.850;4.446;2023-08-07T01:24:34;6.78;;;2.65;;
23782;SDS011;12071;50.850;4.446;2023-08-07T01:29:43;12.32;;;2.85;;
23782;SDS011;12071;50.850;4.446;2023-08-07T01:35:04;10.23;;;2.28;;
23782;SDS011;12071;50.850;4.446;2023-08-07T01:37:33;5.97;;;2.30;;
23782;SDS011;12071;50.850;4.446;2023-08-07T01:40:00;7.85;;;1.95;;
23782;SDS011;12071;50.850;4.446;2023-08-07T01:42:30;8.60;;;2.47;;
23782;SDS011;12071;50.850;4.446;2023-08-07T01:44:58;5.78;;;2.08;;
23782;SDS011;12071;50.850;4.446;2023-08-07T01:47:24;9.75;;;2.42;;
23782;SDS011;12071;50.850;4.446;2023-08-07T01:49:49;8.30;;;2.10;;
23782;SDS011;12071;50.850;4.446;2023-08-07T01:52:15;8.55;;;2.33;;
23782;SDS011;12071;50.850;4.446;2023-08-07T01:54:41;7.38;;;2.42;;
23782;SDS011;12071;50.850;4.446;2023-08-07T01:57:06;4.25;;;2.03;;
23782;SDS011;12071;50.850;4.446;2023-08-07T01:59:32;6.93;;;1.95;;
23782;SDS011;12071;50.850;4.446;2023-08-07T02:01:58;5.53;;;1.92;;
23782;SDS011;12071;50.850;4.446;2023-08-07T02:04:23;5.28;;;1.77;;
23782;SDS011;12071;50.850;4.446;2023-08-07T02:06:50;7.35;;;2.00;;
23782;SDS011;12071;50.850;4.446;2023-08-07T02:09:16;7.07;;;2.45;;
23782;SDS011;12071;50.850;4.446;2023-08-07T02:11:41;6.57;;;2.08;;
23782;SDS011;12071;50.850;4.446;2023-08-07T02:14:07;7.65;;;1.90;;
23782;SDS011;12071;50.850;4.446;2023-08-07T02:16:33;6.15;;;2.20;;
23782;SDS011;12071;50.850;4.446;2023-08-07T02:18:59;4.53;;;1.98;;
23782;SDS011;12071;50.850;4.446;2023-08-07T02:21:25;6.45;;;1.90;;
23782;SDS011;12071;50.850;4.446;2023-08-07T02:23:50;6.45;;;2.08;;
23782;SDS011;12071;50.850;4.446;2023-08-07T02:26:16;7.35;;;2.22;;
23782;SDS011;12071;50.850;4.446;2023-08-07T02:28:42;5.20;;;2.10;;
23782;SDS011;12071;50.850;4.446;2023-08-07T02:31:07;9.32;;;2.33;;
23782;SDS011;12071;50.850;4.446;2023-08-07T02:33:33;5.57;;;2.00;;
23782;SDS011;12071;50.850;4.446;2023-08-07T02:35:59;3.83;;;1.75;;
23782;SDS011;12071;50.850;4.446;2023-08-07T02:38:25;4.32;;;1.67;;
23782;SDS011;12071;50.850;4.446;2023-08-07T02:40:51;7.70;;;1.63;;
23782;SDS011;12071;50.850;4.446;2023-08-07T02:43:16;6.97;;;1.85;;
23782;SDS011;12071;50.850;4.446;2023-08-07T02:45:42;5.32;;;1.90;;
23782;SDS011;12071;50.850;4.446;2023-08-07T02:48:08;8.30;;;2.13;;
23782;SDS011;12071;50.850;4.446;2023-08-07T02:50:33;6.00;;;1.85;;
23782;SDS011;12071;50.850;4.446;2023-08-07T02:53:00;7.53;;;2.00;;
23782;SDS011;12071;50.850;4.446;2023-08-07T02:55:27;5.93;;;2.10;;
23782;SDS011;12071;50.850;4.446;2023-08-07T02:57:52;5.65;;;1.85;;
23782;SDS011;12071;50.850;4.446;2023-08-07T03:00:18;4.07;;;1.60;;
23782;SDS011;12071;50.850;4.446;2023-08-07T03:02:44;5.00;;;1.67;;
23782;SDS011;12071;50.850;4.446;2023-08-07T03:05:10;5.00;;;1.77;;
23782;SDS011;12071;50.850;4.446;2023-08-07T03:07:35;7.95;;;2.22;;
23782;SDS011;12071;50.850;4.446;2023-08-07T03:10:01;6.38;;;1.88;;
23782;SDS011;12071;50.850;4.446;2023-08-07T03:12:27;8.23;;;2.50;;
23782;SDS011;12071;50.850;4.446;2023-08-07T03:14:53;4.72;;;1.90;;
23782;SDS011;12071;50.850;4.446;2023-08-07T03:17:18;5.93;;;1.85;;
23782;SDS011;12071;50.850;4.446;2023-08-07T03:19:45;8.05;;;2.17;;
23782;SDS011;12071;50.850;4.446;2023-08-07T03:22:12;7.15;;;2.05;;
23782;SDS011;12071;50.850;4.446;2023-08-07T03:24:38;6.85;;;2.08;;
23782;SDS011;12071;50.850;4.446;2023-08-07T03:27:03;6.72;;;1.92;;
23782;SDS011;12071;50.850;4.446;2023-08-07T03:29:29;7.80;;;1.83;;
23782;SDS011;12071;50.850;4.446;2023-08-07T03:31:55;3.58;;;1.98;;
23782;SDS011;12071;50.850;4.446;2023-08-07T03:34:21;9.40;;;2.00;;
23782;SDS011;12071;50.850;4.446;2023-08-07T03:36:47;8.90;;;2.30;;
23782;SDS011;12071;50.850;4.446;2023-08-07T03:39:12;4.88;;;2.03;;
23782;SDS011;12071;50.850;4.446;2023-08-07T03:41:39;6.38;;;2.17;;
23782;SDS011;12071;50.850;4.446;2023-08-07T03:44:05;6.07;;;2.40;;
23782;SDS011;12071;50.850;4.446;2023-08-07T03:46:32;3.70;;;2.05;;
23782;SDS011;12071;50.850;4.446;2023-08-07T03:48:57;7.68;;;2.28;;
23782;SDS011;12071;50.850;4.446;2023-08-07T03:51:23;4.70;;;1.98;;
23782;SDS011;12071;50.850;4.446;2023-08-07T03:53:49;5.65;;;1.98;;
23782;SDS011;12071;50.850;4.446;2023-08-07T03:56:15;6.15;;;2.20;;
23782;SDS011;12071;50.850;4.446;2023-08-07T03:58:40;3.15;;;1.75;;
23782;SDS011;12071;50.850;4.446;2023-08-07T04:01:06;6.72;;;2.17;;
23782;SDS011;12071;50.850;4.446;2023-08-07T04:03:32;8.85;;;1.92;;
23782;SDS011;12071;50.850;4.446;2023-08-07T04:05:58;6.78;;;1.95;;
23782;SDS011;12071;50.850;4.446;2023-08-07T04:08:25;7.32;;;2.05;;
23782;SDS011;12071;50.850;4.446;2023-08-07T04:10:58;5.97;;;2.45;;
23782;SDS011;12071;50.850;4.446;2023-08-07T04:13:25;5.88;;;1.95;;
23782;SDS011;12071;50.850;4.446;2023-08-07T04:15:51;10.38;;;2.30;;
23782;SDS011;12071;50.850;4.446;2023-08-07T04:18:16;6.10;;;2.10;;
23782;SDS011;12071;50.850;4.446;2023-08-07T04:20:48;4.88;;;2.08;;
23782;SDS011;12071;50.850;4.446;2023-08-07T04:23:18;9.48;;;2.28;;
23782;SDS011;12071;50.850;4.446;2023-08-07T04:25:44;9.02;;;2.63;;
23782;SDS011;12071;50.850;4.446;2023-08-07T04:28:12;6.28;;;2.10;;
23782;SDS011;12071;50.850;4.446;2023-08-07T04:30:38;9.43;;;2.10;;
23782;SDS011;12071;50.850;4.446;2023-08-07T04:33:04;5.18;;;2.00;;
23782;SDS011;12071;50.850;4.446;2023-08-07T04:35:30;6.30;;;2.25;;
23782;SDS011;12071;50.850;4.446;2023-08-07T04:37:56;5.07;;;2.45;;
23782;SDS011;12071;50.850;4.446;2023-08-07T04:40:22;5.43;;;2.35;;
23782;SDS011;12071;50.850;4.446;2023-08-07T04:42:49;10.05;;;2.40;;
23782;SDS011;12071;50.850;4.446;2023-08-07T04:45:15;11.02;;;2.70;;
23782;SDS011;12071;50.850;4.446;2023-08-07T04:47:40;7.72;;;2.20;;
23782;SDS011;12071;50.850;4.446;2023-08-07T04:50:06;6.90;;;2.45;;
23782;SDS011;12071;50.850;4.446;2023-08-07T04:52:33;6.38;;;2.10;;
23782;SDS011;12071;50.850;4.446;2023-08-07T04:54:59;7.40;;;2.20;;
23782;SDS011;12071;50.850;4.446;2023-08-07T04:57:25;6.53;;;2.63;;
23782;SDS011;12071;50.850;4.446;2023-08-07T04:59:51;6.68;;;2.65;;
23782;SDS011;12071;50.850;4.446;2023-08-07T05:02:17;10.98;;;2.72;;
23782;SDS011;12071;50.850;4.446;2023-08-07T05:04:43;10.13;;;2.85;;
23782;SDS011;12071;50.850;4.446;2023-08-07T05:07:09;8.52;;;2.92;;
23782;SDS011;12071;50.850;4.446;2023-08-07T05:09:35;6.63;;;2.10;;
23782;SDS011;12071;50.850;4.446;2023-08-07T05:12:01;7.55;;;2.75;;
23782;SDS011;12071;50.850;4.446;2023-08-07T05:14:28;7.53;;;2.50;;
23782;SDS011;12071;50.850;4.446;2023-08-07T05:16:54;7.57;;;2.38;;
23782;SDS011;12071;50.850;4.446;2023-08-07T05:19:20;8.57;;;2.42;;
23782;SDS011;12071;50.850;4.446;2023-08-07T05:21:46;9.70;;;2.67;;
23782;SDS011;12071;50.850;4.446;2023-08-07T05:24:15;6.97;;;2.33;;
23782;SDS011;12071;50.850;4.446;2023-08-07T05:26:41;13.45;;;2.30;;
23782;SDS011;12071;50.850;4.446;2023-08-07T05:29:07;5.88;;;2.53;;
23782;SDS011;12071;50.850;4.446;2023-08-07T05:31:33;10.80;;;2.28;;
23782;SDS011;12071;50.850;4.446;2023-08-07T05:34:00;6.32;;;2.05;;
23782;SDS011;12071;50.850;4.446;2023-08-07T05:36:25;6.25;;;2.13;;
23782;SDS011;12071;50.850;4.446;2023-08-07T05:38:51;8.15;;;2.38;;
23782;SDS011;12071;50.850;4.446;2023-08-07T05:41:17;8.80;;;2.20;;
23782;SDS011;12071;50.850;4.446;2023-08-07T05:43:43;9.20;;;2.42;;
23782;SDS011;12071;50.850;4.446;2023-08-07T05:46:08;6.38;;;2.08;;
23782;SDS011;12071;50.850;4.446;2023-08-07T05:48:34;8.05;;;2.40;;
23782;SDS011;12071;50.850;4.446;2023-08-07T05:51:00;10.52;;;2.40;;
23782;SDS011;12071;50.850;4.446;2023-08-07T05:53:26;10.48;;;2.25;;
23782;SDS011;12071;50.850;4.446;2023-08-07T05:55:52;7.85;;;2.40;;
23782;SDS011;12071;50.850;4.446;2023-08-07T05:58:18;6.45;;;2.40;;
23782;SDS011;12071;50.850;4.446;2023-08-07T06:00:44;5.75;;;2.00;;
23782;SDS011;12071;50.850;4.446;2023-08-07T06:03:10;9.40;;;2.80;;
23782;SDS011;12071;50.850;4.446;2023-08-07T06:05:35;6.47;;;2.35;;
23782;SDS011;12071;50.850;4.446;2023-08-07T06:08:01;8.23;;;2.22;;
23782;SDS011;12071;50.850;4.446;2023-08-07T06:10:27;12.50;;;3.08;;
23782;SDS011;12071;50.850;4.446;2023-08-07T06:12:53;8.82;;;2.53;;
23782;SDS011;12071;50.850;4.446;2023-08-07T06:15:19;8.57;;;2.40;;
23782;SDS011;12071;50.850;4.446;2023-08-07T06:17:45;8.38;;;3.03;;
23782;SDS011;12071;50.850;4.446;2023-08-07T06:20:11;5.63;;;2.30;;
23782;SDS011;12071;50.850;4.446;2023-08-07T06:22:40;9.45;;;2.45;;
23782;SDS011;12071;50.850;4.446;2023-08-07T06:25:06;13.18;;;2.80;;
23782;SDS011;12071;50.850;4.446;2023-08-07T06:27:32;9.63;;;2.20;;
23782;SDS011;12071;50.850;4.446;2023-08-07T06:29:58;8.55;;;2.80;;
23782;SDS011;12071;50.850;4.446;2023-08-07T06:32:24;12.63;;;3.00;;
23782;SDS011;12071;50.850;4.446;2023-08-07T06:34:51;9.52;;;2.45;;
23782;SDS011;12071;50.850;4.446;2023-08-07T06:37:17;8.25;;;2.58;;
23782;SDS011;12071;50.850;4.446;2023-08-07T06:39:43;6.25;;;2.25;;
23782;SDS011;12071;50.850;4.446;2023-08-07T06:42:09;9.48;;;2.22;;
23782;SDS011;12071;50.850;4.446;2023-08-07T06:44:35;6.38;;;2.45;;
23782;SDS011;12071;50.850;4.446;2023-08-07T06:47:01;5.55;;;2.30;;
23782;SDS011;12071;50.850;4.446;2023-08-07T06:49:26;6.47;;;2.40;;
23782;SDS011;12071;50.850;4.446;2023-08-07T06:51:52;11.80;;;2.97;;
23782;SDS011;12071;50.850;4.446;2023-08-07T06:54:18;9.18;;;2.60;;
23782;SDS011;12071;50.850;4.446;2023-08-07T06:56:43;7.47;;;2.25;;
23782;SDS011;12071;50.850;4.446;2023-08-07T06:59:09;5.55;;;2.42;;
23782;SDS011;12071;50.850;4.446;2023-08-07T07:01:35;6.95;;;2.22;;
23782;SDS011;12071;50.850;4.446;2023-08-07T07:04:01;11.48;;;2.85;;
23782;SDS011;12071;50.850;4.446;2023-08-07T07:06:27;7.72;;;2.45;;
23782;SDS011;12071;50.850;4.446;2023-08-07T07:08:53;6.50;;;2.42;;
23782;SDS011;12071;50.850;4.446;2023-08-07T07:11:19;9.02;;;2.75;;
23782;SDS011;12071;50.850;4.446;2023-08-07T07:13:47;8.50;;;2.38;;
23782;SDS011;12071;50.850;4.446;2023-08-07T07:16:14;6.43;;;2.20;;
23782;SDS011;12071;50.850;4.446;2023-08-07T07:18:40;5.40;;;2.35;;
23782;SDS011;12071;50.850;4.446;2023-08-07T07:21:06;8.70;;;2.75;;
23782;SDS011;12071;50.850;4.446;2023-08-07T07:23:31;6.60;;;2.15;;
23782;SDS011;12071;50.850;4.446;2023-08-07T07:25:57;7.25;;;2.30;;
23782;SDS011;12071;50.850;4.446;2023-08-07T07:28:23;7.45;;;2.72;;
23782;SDS011;12071;50.850;4.446;2023-08-07T07:30:49;9.07;;;2.70;;
23782;SDS011;12071;50.850;4.446;2023-08-07T07:33:15;8.57;;;2.75;;
23782;SDS011;12071;50.850;4.446;2023-08-07T07:35:41;8.07;;;2.55;;
23782;SDS011;12071;50.850;4.446;2023-08-07T07:38:08;8.38;;;2.40;;
23782;SDS011;12071;50.850;4.446;2023-08-07T07:40:35;4.90;;;2.30;;
23782;SDS011;12071;50.850;4.446;2023-08-07T07:43:01;5.25;;;2.42;;
23782;SDS011;12071;50.850;4.446;2023-08-07T07:45:27;5.28;;;2.05;;
23782;SDS011;12071;50.850;4.446;2023-08-07T07:47:53;8.52;;;1.95;;
23782;SDS011;12071;50.850;4.446;2023-08-07T07:50:19;6.38;;;2.00;;
23782;SDS011;12071;50.850;4.446;2023-08-07T07:52:44;6.15;;;2.10;;
23782;SDS011;12071;50.850;4.446;2023-08-07T07:55:10;7.72;;;2.80;;
23782;SDS011;12071;50.850;4.446;2023-08-07T07:57:37;4.53;;;1.85;;
23782;SDS011;12071;50.850;4.446;2023-08-07T08:00:03;5.03;;;2.13;;
23782;SDS011;12071;50.850;4.446;2023-08-07T08:02:32;5.85;;;2.30;;
23782;SDS011;12071;50.850;4.446;2023-08-07T08:04:58;5.25;;;1.98;;
23782;SDS011;12071;50.850;4.446;2023-08-07T08:07:24;6.38;;;1.77;;
23782;SDS011;12071;50.850;4.446;2023-08-07T08:09:50;2.20;;;1.58;;
23782;SDS011;12071;50.850;4.446;2023-08-07T08:12:17;6.13;;;1.98;;
23782;SDS011;12071;50.850;4.446;2023-08-07T08:14:42;4.60;;;1.95;;
23782;SDS011;12071;50.850;4.446;2023-08-07T08:17:08;8.55;;;1.75;;
23782;SDS011;12071;50.850;4.446;2023-08-07T08:19:34;7.60;;;1.92;;
23782;SDS011;12071;50.850;4.446;2023-08-07T08:59:10;1.92;;;1.42;;
23782;SDS011;12071;50.850;4.446;2023-08-07T09:01:35;3.55;;;1.75;;
23782;SDS011;12071;50.850;4.446;2023-08-07T09:04:03;4.38;;;1.55;;
23782;SDS011;12071;50.850;4.446;2023-08-07T09:06:30;6.40;;;1.75;;
23782;SDS011;12071;50.850;4.446;2023-08-07T09:08:57;3.22;;;1.80;;
23782;SDS011;12071;50.850;4.446;2023-08-07T09:11:24;3.67;;;1.75;;
23782;SDS011;12071;50.850;4.446;2023-08-07T09:13:51;4.57;;;1.70;;
23782;SDS011;12071;50.850;4.446;2023-08-07T09:16:17;2.80;;;1.40;;
23782;SDS011;12071;50.850;4.446;2023-08-07T09:18:45;3.83;;;1.55;;
23782;SDS011;12071;50.850;4.446;2023-08-07T09:21:12;4.18;;;1.42;;
23782;SDS011;12071;50.850;4.446;2023-08-07T09:23:42;4.13;;;1.42;;
23782;SDS011;12071;50.850;4.446;2023-08-07T09:26:08;5.43;;;1.80;;
23782;SDS011;12071;50.850;4.446;2023-08-07T09:28:36;5.63;;;1.75;;
23782;SDS011;12071;50.850;4.446;2023-08-07T09:31:01;5.07;;;1.95;;
23782;SDS011;12071;50.850;4.446;2023-08-07T09:33:30;3.53;;;1.85;;
23782;SDS011;12071;50.850;4.446;2023-08-07T09:36:00;4.80;;;1.77;;
23782;SDS011;12071;50.850;4.446;2023-08-07T09:38:27;5.00;;;1.80;;
23782;SDS011;12071;50.850;4.446;2023-08-07T09:40:57;3.70;;;1.58;;
23782;SDS011;12071;50.850;4.446;2023-08-07T09:43:24;3.88;;;1.70;;
23782;SDS011;12071;50.850;4.446;2023-08-07T09:45:50;2.42;;;1.20;;
23782;SDS011;12071;50.850;4.446;2023-08-07T09:48:22;3.20;;;1.67;;
23782;SDS011;12071;50.850;4.446;2023-08-07T09:50:52;3.28;;;1.70;;
23782;SDS011;12071;50.850;4.446;2023-08-07T09:53:24;4.50;;;1.58;;
23782;SDS011;12071;50.850;4.446;2023-08-07T09:55:52;3.67;;;1.40;;
23782;SDS011;12071;50.850;4.446;2023-08-07T09:58:20;3.22;;;1.50;;
23782;SDS011;12071;50.850;4.446;2023-08-07T10:00:47;3.13;;;1.30;;
23782;SDS011;12071;50.850;4.446;2023-08-07T10:03:13;7.13;;;1.77;;
23782;SDS011;12071;50.850;4.446;2023-08-07T10:05:40;4.22;;;1.48;;
23782;SDS011;12071;50.850;4.446;2023-08-07T10:08:07;5.93;;;1.50;;
23782;SDS011;12071;50.850;4.446;2023-08-07T10:10:33;3.60;;;1.70;;
23782;SDS011;12071;50.850;4.446;2023-08-07T10:13:02;2.85;;;1.35;;
23782;SDS011;12071;50.850;4.446;2023-08-07T10:15:28;3.17;;;1.50;;
23782;SDS011;12071;50.850;4.446;2023-08-07T10:17:56;2.60;;;1.30;;
23782;SDS011;12071;50.850;4.446;2023-08-07T10:20:21;3.88;;;1.30;;
23782;SDS011;12071;50.850;4.446;2023-08-07T10:22:49;3.78;;;1.40;;
23782;SDS011;12071;50.850;4.446;2023-08-07T10:25:17;3.42;;;1.40;;
23782;SDS011;12071;50.850;4.446;2023-08-07T10:27:46;2.33;;;1.40;;
23782;SDS011;12071;50.850;4.446;2023-08-07T10:30:14;3.72;;;1.50;;
23782;SDS011;12071;50.850;4.446;2023-08-07T10:32:42;1.92;;;1.00;;
23782;SDS011;12071;50.850;4.446;2023-08-07T10:35:09;2.22;;;1.17;;
23782;SDS011;12071;50.850;4.446;2023-08-07T10:40:06;3.20;;;1.30;;
23782;SDS011;12071;50.850;4.446;2023-08-07T10:45:19;3.50;;;1.40;;
23782;SDS011;12071;50.850;4.446;2023-08-07T10:50:49;3.45;;;1.35;;
23782;SDS011;12071;50.850;4.446;2023-08-07T10:53:19;1.83;;;1.23;;
23782;SDS011;12071;50.850;4.446;2023-08-07T10:55:47;1.35;;;0.90;;
23782;SDS011;12071;50.850;4.446;2023-08-07T10:58:20;3.30;;;1.30;;
23782;SDS011;12071;50.850;4.446;2023-08-07T11:00:51;1.55;;;1.25;;
23782;SDS011;12071;50.850;4.446;2023-08-07T11:03:28;2.75;;;1.00;;
23782;SDS011;12071;50.850;4.446;2023-08-07T11:05:53;1.88;;;1.02;;
23782;SDS011;12071;50.850;4.446;2023-08-07T11:08:22;2.55;;;1.27;;
23782;SDS011;12071;50.850;4.446;2023-08-07T11:10:50;1.92;;;1.25;;
23782;SDS011;12071;50.850;4.446;2023-08-07T11:13:16;2.53;;;1.35;;
23782;SDS011;12071;50.850;4.446;2023-08-07T11:15:43;1.95;;;1.25;;
23782;SDS011;12071;50.850;4.446;2023-08-07T11:18:09;2.20;;;1.50;;
23782;SDS011;12071;50.850;4.446;2023-08-07T11:20:35;2.60;;;1.40;;
23782;SDS011;12071;50.850;4.446;2023-08-07T11:23:04;3.70;;;1.45;;
23782;SDS011;12071;50.850;4.446;2023-08-07T11:25:30;4.80;;;1.52;;
23782;SDS011;12071;50.850;4.446;2023-08-07T11:27:56;3.17;;;1.58;;
23782;SDS011;12071;50.850;4.446;2023-08-07T11:30:22;5.45;;;1.45;;
23782;SDS011;12071;50.850;4.446;2023-08-07T11:32:47;1.90;;;1.30;;
23782;SDS011;12071;50.850;4.446;2023-08-07T11:35:14;2.60;;;1.50;;
23782;SDS011;12071;50.850;4.446;2023-08-07T11:37:46;3.83;;;1.30;;
23782;SDS011;12071;50.850;4.446;2023-08-07T11:40:15;6.05;;;1.30;;
23782;SDS011;12071;50.850;4.446;2023-08-07T11:42:41;2.90;;;1.50;;
23782;SDS011;12071;50.850;4.446;2023-08-07T11:45:07;3.72;;;1.20;;
23782;SDS011;12071;50.850;4.446;2023-08-07T11:47:33;2.22;;;1.17;;
23782;SDS011;12071;50.850;4.446;2023-08-07T11:49:59;1.70;;;1.05;;
23782;SDS011;12071;50.850;4.446;2023-08-07T11:52:26;3.25;;;1.20;;
23782;SDS011;12071;50.850;4.446;2023-08-07T11:54:52;2.05;;;1.20;;
23782;SDS011;12071;50.850;4.446;2023-08-07T11:57:19;3.75;;;1.27;;
23782;SDS011;12071;50.850;4.446;2023-08-07T11:59:51;3.72;;;1.58;;
23782;SDS011;12071;50.850;4.446;2023-08-07T12:02:21;2.72;;;1.23;;
23782;SDS011;12071;50.850;4.446;2023-08-07T12:04:48;2.45;;;1.40;;
23782;SDS011;12071;50.850;4.446;2023-08-07T12:07:16;2.83;;;1.02;;
23782;SDS011;12071;50.850;4.446;2023-08-07T12:09:44;2.70;;;1.08;;
23782;SDS011;12071;50.850;4.446;2023-08-07T12:12:11;3.92;;;1.55;;
23782;SDS011;12071;50.850;4.446;2023-08-07T12:14:36;3.00;;;1.40;;
23782;SDS011;12071;50.850;4.446;2023-08-07T12:17:03;1.33;;;1.23;;
23782;SDS011;12071;50.850;4.446;2023-08-07T12:19:38;3.10;;;1.50;;
23782;SDS011;12071;50.850;4.446;2023-08-07T12:22:09;2.78;;;1.50;;
23782;SDS011;12071;50.850;4.446;2023-08-07T12:24:36;2.30;;;1.38;;
23782;SDS011;12071;50.850;4.446;2023-08-07T12:27:02;1.88;;;1.10;;
23782;SDS011;12071;50.850;4.446;2023-08-07T12:29:29;4.95;;;1.40;;
23782;SDS011;12071;50.850;4.446;2023-08-07T12:31:55;4.30;;;1.20;;
23782;SDS011;12071;50.850;4.446;2023-08-07T12:34:21;2.28;;;1.27;;
23782;SDS011;12071;50.850;4.446;2023-08-07T12:36:47;2.60;;;1.30;;
23782;SDS011;12071;50.850;4.446;2023-08-07T12:39:12;3.53;;;1.20;;
23782;SDS011;12071;50.850;4.446;2023-08-07T12:41:38;2.92;;;1.27;;
23782;SDS011;12071;50.850;4.446;2023-08-07T12:44:03;1.17;;;1.00;;
23782;SDS011;12071;50.850;4.446;2023-08-07T12:46:30;4.63;;;1.20;;
23782;SDS011;12071;50.850;4.446;2023-08-07T12:48:56;2.30;;;1.23;;
23782;SDS011;12071;50.850;4.446;2023-08-07T12:51:21;3.13;;;1.40;;
23782;SDS011;12071;50.850;4.446;2023-08-07T12:53:47;3.70;;;1.40;;
23782;SDS011;12071;50.850;4.446;2023-08-07T12:56:12;4.13;;;1.10;;
23782;SDS011;12071;50.850;4.446;2023-08-07T12:58:38;2.30;;;1.23;;
23782;SDS011;12071;50.850;4.446;2023-08-07T13:01:08;1.25;;;1.00;;
23782;SDS011;12071;50.850;4.446;2023-08-07T13:03:38;2.45;;;1.27;;
23782;SDS011;12071;50.850;4.446;2023-08-07T13:06:07;1.55;;;0.90;;
23782;SDS011;12071;50.850;4.446;2023-08-07T13:08:36;2.00;;;1.10;;
23782;SDS011;12071;50.850;4.446;2023-08-07T13:11:03;2.33;;;0.98;;
23782;SDS011;12071;50.850;4.446;2023-08-07T13:13:29;1.88;;;0.95;;
23782;SDS011;12071;50.850;4.446;2023-08-07T13:15:55;1.63;;;0.80;;
23782;SDS011;12071;50.850;4.446;2023-08-07T13:18:21;1.85;;;0.93;;
23782;SDS011;12071;50.850;4.446;2023-08-07T13:20:47;3.15;;;0.80;;
23782;SDS011;12071;50.850;4.446;2023-08-07T13:23:13;2.72;;;0.80;;
23782;SDS011;12071;50.850;4.446;2023-08-07T13:25:40;3.70;;;0.88;;
23782;SDS011;12071;50.850;4.446;2023-08-07T13:28:06;2.20;;;0.90;;
23782;SDS011;12071;50.850;4.446;2023-08-07T13:30:34;1.25;;;0.70;;
23782;SDS011;12071;50.850;4.446;2023-08-07T13:33:00;1.88;;;0.70;;
23782;SDS011;12071;50.850;4.446;2023-08-07T13:35:26;1.70;;;0.90;;
23782;SDS011;12071;50.850;4.446;2023-08-07T13:37:52;2.72;;;0.77;;
23782;SDS011;12071;50.850;4.446;2023-08-07T13:40:18;1.25;;;0.60;;
23782;SDS011;12071;50.850;4.446;2023-08-07T13:42:45;1.25;;;0.70;;
23782;SDS011;12071;50.850;4.446;2023-08-07T13:45:11;0.90;;;0.70;;
23782;SDS011;12071;50.850;4.446;2023-08-07T13:47:38;1.98;;;0.90;;
23782;SDS011;12071;50.850;4.446;2023-08-07T13:50:05;1.35;;;0.73;;
23782;SDS011;12071;50.850;4.446;2023-08-07T13:52:32;1.10;;;0.80;;
23782;SDS011;12071;50.850;4.446;2023-08-07T13:54:58;0.93;;;0.57;;
23782;SDS011;12071;50.850;4.446;2023-08-07T13:57:24;0.63;;;0.50;;
23782;SDS011;12071;50.850;4.446;2023-08-07T13:59:50;2.72;;;0.80;;
23782;SDS011;12071;50.850;4.446;2023-08-07T14:02:16;0.95;;;0.60;;
23782;SDS011;12071;50.850;4.446;2023-08-07T14:04:41;3.78;;;0.63;;
23782;SDS011;12071;50.850;4.446;2023-08-07T14:07:10;2.53;;;0.80;;
23782;SDS011;12071;50.850;4.446;2023-08-07T14:09:36;2.38;;;0.50;;
23782;SDS011;12071;50.850;4.446;2023-08-07T14:12:03;1.33;;;0.55;;
23782;SDS011;12071;50.850;4.446;2023-08-07T14:14:29;0.65;;;0.50;;
23782;SDS011;12071;50.850;4.446;2023-08-07T14:16:55;1.95;;;0.73;;
23782;SDS011;12071;50.850;4.446;2023-08-07T14:19:25;1.50;;;0.57;;
23782;SDS011;12071;50.850;4.446;2023-08-07T14:21:52;0.63;;;0.50;;
23782;SDS011;12071;50.850;4.446;2023-08-07T14:24:18;2.30;;;0.60;;
23782;SDS011;12071;50.850;4.446;2023-08-07T14:26:44;0.80;;;0.50;;
23782;SDS011;12071;50.850;4.446;2023-08-07T14:29:10;1.65;;;0.65;;
23782;SDS011;12071;50.850;4.446;2023-08-07T14:31:37;1.10;;;0.60;;
23782;SDS011;12071;50.850;4.446;2023-08-07T14:34:02;2.40;;;0.80;;
23782;SDS011;12071;50.850;4.446;2023-08-07T14:36:29;2.35;;;0.68;;
23782;SDS011;12071;50.850;4.446;2023-08-07T14:38:56;1.52;;;0.50;;
23782;SDS011;12071;50.850;4.446;2023-08-07T14:41:22;1.38;;;0.65;;
23782;SDS011;12071;50.850;4.446;2023-08-07T14:43:49;1.95;;;0.55;;
23782;SDS011;12071;50.850;4.446;2023-08-07T14:46:15;3.03;;;0.70;;
23782;SDS011;12071;50.850;4.446;2023-08-07T14:48:42;1.40;;;0.52;;
23782;SDS011;12071;50.850;4.446;2023-08-07T14:51:07;3.08;;;0.80;;
23782;SDS011;12071;50.850;4.446;2023-08-07T14:53:34;1.35;;;0.60;;
23782;SDS011;12071;50.850;4.446;2023-08-07T14:56:00;2.38;;;0.73;;
23782;SDS011;12071;50.850;4.446;2023-08-07T14:58:26;0.70;;;0.60;;
23782;SDS011;12071;50.850;4.446;2023-08-07T15:00:55;1.17;;;0.50;;
23782;SDS011;12071;50.850;4.446;2023-08-07T15:03:21;1.23;;;0.70;;
23782;SDS011;12071;50.850;4.446;2023-08-07T15:05:47;1.42;;;0.73;;
23782;SDS011;12071;50.850;4.446;2023-08-07T15:08:12;2.70;;;0.70;;
23782;SDS011;12071;50.850;4.446;2023-08-07T15:10:39;3.25;;;0.70;;
23782;SDS011;12071;50.850;4.446;2023-08-07T15:13:05;1.52;;;0.80;;
23782;SDS011;12071;50.850;4.446;2023-08-07T15:15:32;0.85;;;0.57;;
23782;SDS011;12071;50.850;4.446;2023-08-07T15:18:01;2.33;;;0.90;;
23782;SDS011;12071;50.850;4.446;2023-08-07T15:20:29;0.80;;;0.50;;
23782;SDS011;12071;50.850;4.446;2023-08-07T15:22:56;2.00;;;0.70;;
23782;SDS011;12071;50.850;4.446;2023-08-07T15:25:21;1.77;;;0.75;;
23782;SDS011;12071;50.850;4.446;2023-08-07T15:27:47;2.13;;;0.93;;
23782;SDS011;12071;50.850;4.446;2023-08-07T15:30:13;1.25;;;0.60;;
23782;SDS011;12071;50.850;4.446;2023-08-07T15:32:38;2.53;;;0.98;;
23782;SDS011;12071;50.850;4.446;2023-08-07T15:35:06;1.10;;;0.50;;
23782;SDS011;12071;50.850;4.446;2023-08-07T15:37:32;2.05;;;0.70;;
23782;SDS011;12071;50.850;4.446;2023-08-07T15:39:58;2.83;;;0.73;;